Time;durP1;ratioP1;P1;durP2;ratioP2;P2;SDS_P1;SDS_P2;PMS_P1;PMS_P2;Temp;Humidity;BMP_temperature;BMP_pressure;BME280_temperature;BME280_humidity;BME280_pressure;Samples;Min_cycle;Max_cycle;Signal;HPM_P1;HPM_P2
2023/03/27 00:02:20;;;;;;;23.58;15.50;;;;;;;;;;6361176;27;20359;-73
2023/03/27 00:05:23;;;;;;;25.10;15.18;;;;;;;;;;6363260;27;20350;-73
2023/03/27 00:08:26;;;;;;;20.70;14.65;;;;;;;;;;6365989;27;20043;-73
2023/03/27 00:11:28;;;;;;;20.90;14.77;;;;;;;;;;6360831;27;20063;-72
2023/03/27 00:14:32;;;;;;;24.98;14.23;;;;;;;;;;6363547;27;20047;-74
2023/03/27 00:17:43;;;;;;;21.58;14.13;;;;;;;;;;6360751;28;20108;-72
2023/03/27 00:20:44;;;;;;;20.50;13.70;;;;;;;;;;6363745;27;20201;-73
2023/03/27 00:23:46;;;;;;;22.65;13.98;;;;;;;;;;6364113;27;20051;-69
2023/03/27 00:27:03;;;;;;;19.38;12.90;;;;;;;;;;6361346;28;20047;-74
2023/03/27 00:30:08;;;;;;;19.73;11.77;;;;;;;;;;6358328;27;20067;-73
2023/03/27 00:33:11;;;;;;;17.27;11.98;;;;;;;;;;6359410;27;20052;-73
2023/03/27 00:36:16;;;;;;;18.42;12.23;;;;;;;;;;6363611;27;20277;-72
2023/03/27 00:39:19;;;;;;;21.45;11.52;;;;;;;;;;6363564;27;20103;-72
2023/03/27 00:42:23;;;;;;;17.95;10.50;;;;;;;;;;6357809;27;20235;-72
2023/03/27 00:45:27;;;;;;;;;;;;;;;;;;6359153;27;20075;-74
2023/03/27 00:48:48;;;;;;;13.63;8.80;;;;;;;;;;6360286;27;20477;-72
2023/03/27 00:51:51;;;;;;;12.25;8.15;;;;;;;;;;6362891;27;20065;-73
2023/03/27 00:54:53;;;;;;;12.82;7.88;;;;;;;;;;6365449;27;20063;-74
2023/03/27 00:57:58;;;;;;;10.68;6.70;;;;;;;;;;6361383;27;20047;-74
2023/03/27 01:01:02;;;;;;;7.90;5.47;;;;;;;;;;6365067;27;20059;-74
2023/03/27 01:04:06;;;;;;;6.45;4.18;;;;;;;;;;6365534;27;20067;-74
2023/03/27 01:07:10;;;;;;;7.72;4.05;;;;;;;;;;6366352;27;20055;-68
2023/03/27 01:10:52;;;;;;;7.25;3.95;;;;;;;;;;6365961;27;20047;-73
2023/03/27 01:14:11;;;;;;;5.30;3.40;;;;;;;;;;6361401;27;20055;-74
2023/03/27 01:26:28;;;;;;;6.15;3.60;;;;;;;;;;6267087;28;20128;-74
2023/03/27 01:30:12;;;;;;;7.68;3.15;;;;;;;;;;6273506;28;20118;-74
2023/03/27 01:33:53;;;;;;;5.47;2.83;;;;;;;;;;6274285;28;20057;-74
2023/03/27 01:37:46;;;;;;;4.18;2.38;;;;;;;;;;6268638;28;20049;-74
2023/03/27 01:40:51;;;;;;;4.40;2.10;;;;;;;;;;6198759;28;20066;-74
2023/03/27 01:44:06;;;;;;;3.90;1.55;;;;;;;;;;6221975;28;20252;-74
2023/03/27 01:47:58;;;;;;;2.33;1.60;;;;;;;;;;6278936;28;20110;-74
2023/03/27 01:51:03;;;;;;;2.88;1.65;;;;;;;;;;6295178;28;20064;-73
2023/03/27 01:54:20;;;;;;;2.55;1.50;;;;;;;;;;6294231;28;20155;-73
2023/03/27 01:57:26;;;;;;;2.28;1.70;;;;;;;;;;6269710;28;20056;-73
2023/03/27 02:07:31;;;;;;;2.20;1.23;;;;;;;;;;6266989;28;20069;-75
2023/03/27 02:10:37;;;;;;;1.90;1.20;;;;;;;;;;6268934;28;20204;-73
2023/03/27 02:13:43;;;;;;;2.80;1.40;;;;;;;;;;6266397;28;20048;-72
2023/03/27 02:20:19;;;;;;;1.77;1.10;;;;;;;;;;6329785;28;20127;-74
2023/03/27 02:23:21;;;;;;;3.10;1.10;;;;;;;;;;6341017;27;20194;-74
2023/03/27 02:26:24;;;;;;;1.65;1.27;;;;;;;;;;6339446;27;20120;-74
2023/03/27 02:29:42;;;;;;;3.35;1.13;;;;;;;;;;6339581;27;20121;-72
2023/03/27 02:32:49;;;;;;;2.45;1.40;;;;;;;;;;6340194;27;20052;-74
2023/03/27 02:36:11;;;;;;;1.98;1.10;;;;;;;;;;6340282;27;20312;-74
2023/03/27 02:47:09;;;;;;;1.17;0.80;;;;;;;;;;6333654;27;20052;-74
2023/03/27 02:50:15;;;;;;;1.98;1.13;;;;;;;;;;6335894;27;20081;-73
2023/03/27 02:53:19;;;;;;;2.80;1.20;;;;;;;;;;6335875;27;20047;-73
2023/03/27 03:00:46;;;;;;;2.78;0.93;;;;;;;;;;6359850;27;20047;-81
2023/03/27 03:04:15;;;;;;;1.95;1.00;;;;;;;;;;6341552;27;20042;-73
2023/03/27 03:07:17;;;;;;;1.35;0.88;;;;;;;;;;6360156;27;20052;-73
2023/03/27 03:10:28;;;;;;;1.50;0.95;;;;;;;;;;6363579;27;20487;-72
2023/03/27 03:16:51;;;;;;;1.33;0.95;;;;;;;;;;6359541;27;20043;-73
2023/03/27 03:20:28;;;;;;;1.00;0.70;;;;;;;;;;6366011;27;20046;-73
2023/03/27 03:26:48;;;;;;;1.55;1.02;;;;;;;;;;6222943;28;20234;-73
2023/03/27 03:29:51;;;;;;;2.25;0.95;;;;;;;;;;6240174;28;20073;-74
2023/03/27 03:32:58;;;;;;;1.63;0.80;;;;;;;;;;6239224;28;20048;-74
2023/03/27 03:36:02;;;;;;;1.02;0.70;;;;;;;;;;6237128;28;20045;-77
2023/03/27 03:39:05;;;;;;;;;;;;;;;;;;6240278;28;20057;-75
2023/03/27 03:42:08;;;;;;;1.10;0.40;;;;;;;;;;6239050;28;19924;-77
2023/03/27 03:48:40;;;;;;;1.27;0.40;;;;;;;;;;6181202;28;20057;-75
2023/03/27 03:51:45;;;;;;;0.38;0.30;;;;;;;;;;6239167;28;20742;-75
2023/03/27 03:54:51;;;;;;;0.73;0.40;;;;;;;;;;6227176;28;20085;-74
2023/03/27 03:58:04;;;;;;;0.82;0.38;;;;;;;;;;6241845;28;20046;-74
2023/03/27 04:01:07;;;;;;;0.68;0.50;;;;;;;;;;6215756;28;20066;-74
2023/03/27 04:04:20;;;;;;;1.00;0.43;;;;;;;;;;6319199;27;20051;-73
2023/03/27 04:07:24;;;;;;;0.90;0.50;;;;;;;;;;6340939;27;20055;-73
2023/03/27 04:10:28;;;;;;;2.10;0.80;;;;;;;;;;6361420;27;20051;-71
2023/03/27 04:13:31;;;;;;;0.70;0.40;;;;;;;;;;6362084;27;20055;-76
2023/03/27 04:16:33;;;;;;;2.03;0.40;;;;;;;;;;6362353;27;20130;-75
2023/03/27 04:19:35;;;;;;;4.20;0.40;;;;;;;;;;6362561;27;20051;-73
2023/03/27 04:22:45;;;;;;;1.35;0.60;;;;;;;;;;6362972;27;20069;-76
2023/03/27 04:26:03;;;;;;;0.55;0.30;;;;;;;;;;6359207;27;20069;-74
2023/03/27 04:29:14;;;;;;;1.23;0.50;;;;;;;;;;6362881;27;20039;-73
2023/03/27 04:32:17;;;;;;;2.10;0.57;;;;;;;;;;6365573;28;20043;-73
2023/03/27 04:35:32;;;;;;;1.00;0.45;;;;;;;;;;6346271;27;20290;-71
2023/03/27 04:42:22;;;;;;;1.52;0.55;;;;;;;;;;6292224;28;19924;-74
2023/03/27 04:45:24;;;;;;;2.10;0.40;;;;;;;;;;6273802;28;20070;-74
2023/03/27 04:48:53;;;;;;;0.65;0.40;;;;;;;;;;6287419;28;20210;-72
2023/03/27 04:51:55;;;;;;;0.30;0.30;;;;;;;;;;6274718;28;20285;-74
2023/03/27 04:55:14;;;;;;;0.70;0.50;;;;;;;;;;6286263;28;20064;-74
2023/03/27 04:58:32;;;;;;;0.60;0.30;;;;;;;;;;6279475;28;20462;-72
2023/03/27 05:01:34;;;;;;;1.52;0.50;;;;;;;;;;6246313;28;20309;-72
2023/03/27 05:04:37;;;;;;;1.77;0.40;;;;;;;;;;6287659;28;20072;-76
2023/03/27 05:11:53;;;;;;;;;;;;;;;;;;;;;
2023/03/27 05:15:31;;;;;;;2.20;0.40;;;;;;;;;;6257563;27;20042;-74
2023/03/27 05:18:43;;;;;;;0.55;0.45;;;;;;;;;;6363933;27;20130;-75
2023/03/27 05:22:12;;;;;;;1.10;0.50;;;;;;;;;;6350556;27;20047;-75
2023/03/27 05:25:17;;;;;;;2.38;0.70;;;;;;;;;;6365282;27;20242;-75
2023/03/27 05:28:28;;;;;;;2.03;0.50;;;;;;;;;;6360601;27;20355;-75
2023/03/27 05:31:42;;;;;;;1.52;0.50;;;;;;;;;;6353467;27;20071;-73
2023/03/27 05:34:49;;;;;;;3.55;0.40;;;;;;;;;;6361950;27;20097;-74
2023/03/27 05:38:01;;;;;;;1.27;0.60;;;;;;;;;;6361731;27;20058;-73
2023/03/27 05:41:03;;;;;;;1.65;0.70;;;;;;;;;;6358876;27;20059;-77
2023/03/27 05:44:09;;;;;;;1.48;0.60;;;;;;;;;;6364423;27;20243;-76
2023/03/27 05:47:14;;;;;;;2.50;0.57;;;;;;;;;;6365395;27;20118;-75
2023/03/27 05:50:17;;;;;;;2.83;1.00;;;;;;;;;;6362522;27;20047;-74
2023/03/27 05:53:19;;;;;;;1.70;0.60;;;;;;;;;;6366647;27;20290;-74
2023/03/27 05:56:22;;;;;;;0.90;0.50;;;;;;;;;;6374393;27;20059;-76
2023/03/27 05:59:25;;;;;;;0.88;0.40;;;;;;;;;;6362712;27;20069;-74
2023/03/27 06:02:31;;;;;;;1.27;0.50;;;;;;;;;;6371437;27;20043;-74
2023/03/27 06:05:33;;;;;;;3.10;0.82;;;;;;;;;;6372741;27;20051;-75
2023/03/27 06:08:36;;;;;;;1.80;0.70;;;;;;;;;;6371059;27;20059;-75
2023/03/27 06:11:39;;;;;;;5.57;0.73;;;;;;;;;;6373295;27;20047;-74
2023/03/27 06:14:42;;;;;;;1.52;0.60;;;;;;;;;;6366274;27;20058;-74
2023/03/27 06:17:47;;;;;;;2.73;0.60;;;;;;;;;;6365288;27;20051;-75
2023/03/27 06:20:48;;;;;;;1.85;0.70;;;;;;;;;;6369354;27;20047;-75
2023/03/27 06:23:50;;;;;;;4.07;2.08;;;;;;;;;;6371121;27;20346;-75
2023/03/27 06:26:52;;;;;;;1.80;0.77;;;;;;;;;;6364494;27;20071;-74
2023/03/27 06:29:55;;;;;;;3.53;0.80;;;;;;;;;;6361868;27;20047;-71
2023/03/27 06:32:58;;;;;;;3.67;1.00;;;;;;;;;;6361423;27;20124;-75
2023/03/27 06:36:04;;;;;;;3.30;0.82;;;;;;;;;;6361433;27;20270;-74
2023/03/27 06:39:15;;;;;;;5.25;0.90;;;;;;;;;;6342441;27;20060;-73
2023/03/27 06:42:17;;;;;;;2.80;0.77;;;;;;;;;;6358387;27;20051;-74
2023/03/27 06:45:21;;;;;;;2.25;1.10;;;;;;;;;;6361438;27;20275;-73
2023/03/27 06:48:23;;;;;;;6.57;0.90;;;;;;;;;;6364289;27;20396;-73
2023/03/27 06:51:25;;;;;;;1.95;0.70;;;;;;;;;;6361350;27;20414;-74
2023/03/27 06:54:28;;;;;;;2.50;0.70;;;;;;;;;;6361357;27;20062;-74
2023/03/27 06:57:30;;;;;;;2.85;0.75;;;;;;;;;;6349919;27;20077;-73
2023/03/27 07:00:37;;;;;;;3.13;0.90;;;;;;;;;;6363015;27;20055;-73
2023/03/27 07:03:39;;;;;;;5.15;0.75;;;;;;;;;;6361728;27;20055;-73
2023/03/27 07:06:42;;;;;;;3.13;0.75;;;;;;;;;;6362990;27;20051;-74
2023/03/27 07:09:55;;;;;;;5.78;0.80;;;;;;;;;;6362597;27;20043;-73
2023/03/27 07:12:57;;;;;;;7.22;0.60;;;;;;;;;;6349543;27;20122;-73
2023/03/27 07:16:01;;;;;;;3.33;0.70;;;;;;;;;;6363810;27;20230;-73
2023/03/27 07:19:04;;;;;;;0.65;0.50;;;;;;;;;;6351843;27;20350;-73
2023/03/27 07:22:06;;;;;;;3.45;1.00;;;;;;;;;;6350436;27;20053;-72
2023/03/27 07:25:08;;;;;;;2.60;0.90;;;;;;;;;;6364297;27;20085;-73
2023/03/27 07:28:18;;;;;;;4.05;0.82;;;;;;;;;;6362043;27;20074;-73
2023/03/27 07:31:30;;;;;;;1.85;0.95;;;;;;;;;;6349015;27;20057;-73
2023/03/27 07:34:32;;;;;;;1.33;0.80;;;;;;;;;;6360543;27;20044;-73
2023/03/27 07:37:36;;;;;;;2.72;1.00;;;;;;;;;;6361334;27;20067;-72
2023/03/27 07:40:38;;;;;;;1.27;0.85;;;;;;;;;;6355116;27;20059;-74
2023/03/27 07:43:55;;;;;;;3.28;1.35;;;;;;;;;;6348966;27;20080;-74
2023/03/27 07:46:59;;;;;;;6.38;1.10;;;;;;;;;;6361666;27;20047;-74
2023/03/27 07:50:14;;;;;;;;;;;;;;;;;;6361941;27;20039;-73
2023/03/27 07:53:26;;;;;;;0.35;0.30;;;;;;;;;;6361551;27;20142;-71
2023/03/27 07:56:32;;;;;;;1.92;0.32;;;;;;;;;;6341149;27;20088;-73
2023/03/27 07:59:34;;;;;;;5.25;0.35;;;;;;;;;;6348283;27;20283;-73
2023/03/27 08:03:05;;;;;;;3.03;0.55;;;;;;;;;;6363892;27;20059;-74
2023/03/27 08:06:11;;;;;;;1.60;0.45;;;;;;;;;;6362092;27;20320;-74
2023/03/27 08:09:13;;;;;;;2.70;0.30;;;;;;;;;;6359211;27;20062;-73
2023/03/27 08:12:27;;;;;;;2.08;0.95;;;;;;;;;;6362986;27;20059;-74
2023/03/27 08:15:41;;;;;;;1.95;0.50;;;;;;;;;;6359168;27;20085;-74
2023/03/27 08:18:46;;;;;;;1.55;0.20;;;;;;;;;;6362389;27;20047;-73
2023/03/27 08:22:00;;;;;;;0.10;0.03;;;;;;;;;;6359024;27;20466;-74
2023/03/27 08:25:17;;;;;;;2.30;0.40;;;;;;;;;;6349982;28;20377;-73
2023/03/27 08:28:19;;;;;;;1.90;0.17;;;;;;;;;;6316510;27;20062;-74
2023/03/27 08:32:09;;;;;;;0.98;0.20;;;;;;;;;;6348114;27;20058;-73
2023/03/27 08:35:19;;;;;;;4.30;0.25;;;;;;;;;;6330941;27;20145;-74
2023/03/27 08:38:32;;;;;;;2.83;0.20;;;;;;;;;;6313346;28;20061;-74
2023/03/27 08:41:41;;;;;;;1.27;0.20;;;;;;;;;;6324026;27;20043;-74
2023/03/27 08:44:45;;;;;;;0.65;0.20;;;;;;;;;;6360845;28;20057;-72
2023/03/27 08:47:58;;;;;;;2.75;0.70;;;;;;;;;;6362011;28;20047;-73
2023/03/27 08:51:17;;;;;;;3.42;0.50;;;;;;;;;;6356154;27;20323;-73
2023/03/27 08:54:21;;;;;;;2.28;0.40;;;;;;;;;;6360117;28;20058;-73
2023/03/27 08:57:31;;;;;;;2.45;0.43;;;;;;;;;;6323515;28;20043;-72
2023/03/27 09:00:39;;;;;;;1.30;0.30;;;;;;;;;;6309071;28;20112;-74
2023/03/27 09:03:57;;;;;;;4.20;0.20;;;;;;;;;;6296019;28;20062;-74
2023/03/27 09:07:33;;;;;;;0.90;0.20;;;;;;;;;;6319904;28;20063;-74
2023/03/27 09:10:39;;;;;;;1.63;0.30;;;;;;;;;;6296545;28;20110;-74
2023/03/27 09:13:44;;;;;;;5.45;0.45;;;;;;;;;;6298209;28;20248;-73
2023/03/27 09:16:48;;;;;;;3.50;0.30;;;;;;;;;;6296733;28;20060;-74
2023/03/27 09:19:57;;;;;;;3.75;0.55;;;;;;;;;;6301855;28;20102;-72
2023/03/27 09:23:06;;;;;;;1.77;0.30;;;;;;;;;;6296818;28;20065;-73
2023/03/27 09:26:11;;;;;;;1.75;0.25;;;;;;;;;;6304506;28;20052;-73
2023/03/27 09:29:25;;;;;;;1.30;0.30;;;;;;;;;;6299796;28;20107;-74
2023/03/27 09:32:27;;;;;;;1.90;0.47;;;;;;;;;;6289137;28;20055;-73
2023/03/27 09:35:30;;;;;;;2.45;0.20;;;;;;;;;;6302707;28;20407;-74
2023/03/27 09:38:49;;;;;;;2.47;0.70;;;;;;;;;;6282523;28;20325;-73
2023/03/27 09:41:55;;;;;;;1.98;0.30;;;;;;;;;;6336084;28;20332;-74
2023/03/27 09:45:05;;;;;;;1.10;0.30;;;;;;;;;;6337650;28;20056;-73
2023/03/27 09:48:12;;;;;;;3.53;0.20;;;;;;;;;;6329490;28;20390;-73
2023/03/27 09:51:45;;;;;;;0.93;0.20;;;;;;;;;;6336165;28;20073;-74
2023/03/27 09:54:59;;;;;;;1.25;0.25;;;;;;;;;;6233202;28;20057;-73
2023/03/27 09:58:16;;;;;;;0.30;0.20;;;;;;;;;;6235527;28;20044;-74
2023/03/27 10:01:29;;;;;;;1.08;0.15;;;;;;;;;;6233692;28;20061;-74
2023/03/27 10:04:46;;;;;;;1.42;0.20;;;;;;;;;;6236896;28;20053;-73
2023/03/27 10:08:09;;;;;;;0.17;0.05;;;;;;;;;;6234838;28;20053;-74
2023/03/27 10:11:18;;;;;;;2.50;0.40;;;;;;;;;;6226245;28;20420;-74
2023/03/27 10:14:25;;;;;;;3.20;0.20;;;;;;;;;;6238643;28;20270;-74
2023/03/27 10:17:32;;;;;;;2.80;0.30;;;;;;;;;;6236545;28;20545;-74
2023/03/27 10:20:50;;;;;;;0.98;0.40;;;;;;;;;;6235786;28;20054;-74
2023/03/27 10:23:56;;;;;;;0.75;0.20;;;;;;;;;;6233788;28;20052;-74
2023/03/27 10:27:21;;;;;;;1.83;0.40;;;;;;;;;;6224206;28;20053;-74
2023/03/27 10:30:30;;;;;;;5.50;0.30;;;;;;;;;;6338304;28;20097;-74
2023/03/27 10:33:34;;;;;;;3.30;0.35;;;;;;;;;;6337995;28;20064;-74
2023/03/27 10:36:38;;;;;;;3.08;0.30;;;;;;;;;;6337291;28;20130;-73
2023/03/27 10:39:45;;;;;;;1.23;0.20;;;;;;;;;;6335751;28;20071;-72
2023/03/27 10:43:04;;;;;;;3.10;0.95;;;;;;;;;;6329253;28;20051;-73
2023/03/27 10:46:12;;;;;;;2.72;0.50;;;;;;;;;;6324156;28;20408;-72
2023/03/27 10:49:27;;;;;;;4.60;0.30;;;;;;;;;;6336596;28;20184;-73
2023/03/27 10:52:35;;;;;;;2.25;0.30;;;;;;;;;;6334216;28;20044;-74
2023/03/27 10:55:47;;;;;;;0.60;0.40;;;;;;;;;;6345904;27;20063;-74
2023/03/27 10:58:59;;;;;;;1.60;0.40;;;;;;;;;;6362436;27;20047;-74
2023/03/27 11:02:10;;;;;;;2.90;0.22;;;;;;;;;;6362244;27;20403;-71
2023/03/27 11:05:14;;;;;;;4.00;0.60;;;;;;;;;;6361833;27;20070;-72
2023/03/27 11:08:20;;;;;;;1.15;0.30;;;;;;;;;;6360735;27;20095;-71
2023/03/27 11:11:26;;;;;;;1.48;0.50;;;;;;;;;;6361693;27;20084;-75
2023/03/27 11:14:48;;;;;;;4.28;0.55;;;;;;;;;;6361624;27;20097;-75
2023/03/27 11:17:57;;;;;;;0.88;0.40;;;;;;;;;;6360612;27;20061;-72
2023/03/27 11:21:01;;;;;;;4.57;0.50;;;;;;;;;;6348208;27;20123;-73
2023/03/27 11:24:11;;;;;;;3.33;0.30;;;;;;;;;;6345988;27;20090;-72
2023/03/27 11:27:17;;;;;;;1.02;0.40;;;;;;;;;;6361509;27;20049;-74
2023/03/27 11:30:41;;;;;;;2.17;0.30;;;;;;;;;;6359696;27;20074;-73
2023/03/27 11:33:47;;;;;;;2.35;0.25;;;;;;;;;;6361860;27;20079;-74
2023/03/27 11:36:51;;;;;;;0.50;0.10;;;;;;;;;;6361782;27;20138;-74
2023/03/27 11:40:11;;;;;;;0.63;0.20;;;;;;;;;;6357553;27;20043;-75
2023/03/27 11:43:18;;;;;;;96.00;68.40;;;;;;;;;;6360192;27;20285;-74
2023/03/27 11:50:10;;;;;;;9.68;3.75;;;;;;;;;;6360369;27;20341;-74
2023/03/27 11:53:42;;;;;;;21.88;11.52;;;;;;;;;;6363471;27;20120;-74
2023/03/27 11:56:54;;;;;;;7.15;4.00;;;;;;;;;;6362456;27;20302;-74
2023/03/27 12:00:32;;;;;;;38.75;27.23;;;;;;;;;;6360340;27;20231;-74
2023/03/27 12:04:14;;;;;;;2.70;1.30;;;;;;;;;;6345368;27;20050;-74
2023/03/27 12:07:27;;;;;;;1.17;0.60;;;;;;;;;;6360730;27;20142;-73
2023/03/27 12:10:33;;;;;;;1.20;0.40;;;;;;;;;;6360384;27;20051;-74
2023/03/27 12:13:52;;;;;;;0.98;0.28;;;;;;;;;;6353793;27;20043;-74
2023/03/27 12:21:32;;;;;;;2.65;0.30;;;;;;;;;;6257062;28;20037;-74
2023/03/27 12:24:44;;;;;;;3.67;0.22;;;;;;;;;;6261392;28;20045;-73
2023/03/27 12:27:58;;;;;;;0.68;0.30;;;;;;;;;;6257526;28;20056;-73
2023/03/27 12:31:08;;;;;;;0.88;0.20;;;;;;;;;;6259853;28;20138;-74
2023/03/27 12:34:16;;;;;;;3.42;0.30;;;;;;;;;;6259210;28;20096;-73
2023/03/27 12:37:40;;;;;;;;;;;;;;;;;;;;;
2023/03/27 12:40:50;;;;;;;2.55;0.30;;;;;;;;;;6261840;28;20337;-75
2023/03/27 12:44:03;;;;;;;2.97;0.30;;;;;;;;;;6259183;28;20116;-75
2023/03/27 12:47:17;;;;;;;3.85;0.30;;;;;;;;;;6259044;28;20118;-75
2023/03/27 12:50:21;;;;;;;0.38;0.38;;;;;;;;;;6259197;28;20120;-75
2023/03/27 12:53:58;;;;;;;;;;;;;;;;;;;;;
2023/03/27 12:57:14;;;;;;;3.20;0.80;;;;;;;;;;6246093;28;20049;-74
2023/03/27 13:00:21;;;;;;;2.67;0.20;;;;;;;;;;6284858;28;20060;-75
2023/03/27 13:03:52;;;;;;;1.13;0.10;;;;;;;;;;6287121;28;20130;-74
2023/03/27 13:10:45;;;;;;;0.98;0.20;;;;;;;;;;6251729;28;20304;-73
2023/03/27 13:14:11;;;;;;;0.73;0.20;;;;;;;;;;6259910;28;20057;-75
2023/03/27 13:17:28;;;;;;;0.43;0.20;;;;;;;;;;6259034;28;20250;-75
2023/03/27 13:20:39;;;;;;;3.20;0.50;;;;;;;;;;6258132;28;20072;-76
2023/03/27 13:23:55;;;;;;;1.95;0.22;;;;;;;;;;6259665;28;20061;-76
2023/03/27 13:27:08;;;;;;;1.92;0.30;;;;;;;;;;6255770;28;20124;-73
2023/03/27 13:30:44;;;;;;;0.57;0.22;;;;;;;;;;6259323;28;20051;-72
2023/03/27 13:34:11;;;;;;;0.60;0.20;;;;;;;;;;6289863;28;20066;-72
2023/03/27 13:37:51;;;;;;;1.75;0.30;;;;;;;;;;6331720;28;20358;-73
2023/03/27 13:40:52;;;;;;;1.17;0.35;;;;;;;;;;6339295;28;20044;-78
2023/03/27 13:43:58;;;;;;;2.58;0.30;;;;;;;;;;6336947;28;20423;-76
2023/03/27 13:47:08;;;;;;;2.22;0.30;;;;;;;;;;6336936;28;20052;-78
2023/03/27 13:50:22;;;;;;;0.70;0.25;;;;;;;;;;6338181;28;20044;-76
2023/03/27 13:53:38;;;;;;;8.45;0.80;;;;;;;;;;6339184;28;20052;-75
2023/03/27 13:56:50;;;;;;;3.15;0.30;;;;;;;;;;6340100;28;20058;-76
2023/03/27 14:00:25;;;;;;;102.05;61.75;;;;;;;;;;6345763;28;20047;-75
2023/03/27 14:03:57;;;;;;;12.73;7.43;;;;;;;;;;6339194;28;20055;-76
2023/03/27 14:07:16;;;;;;;18.00;13.43;;;;;;;;;;6345353;28;20055;-75
2023/03/27 14:10:31;;;;;;;5.13;1.67;;;;;;;;;;6343288;28;20048;-75
2023/03/27 14:13:50;;;;;;;3.70;1.63;;;;;;;;;;6345572;28;20056;-75
2023/03/27 14:17:25;;;;;;;0.70;0.32;;;;;;;;;;6344330;28;20055;-75
2023/03/27 14:20:33;;;;;;;3.47;0.63;;;;;;;;;;6338319;28;20082;-75
2023/03/27 14:23:57;;;;;;;2.50;0.30;;;;;;;;;;6338483;28;20047;-75
2023/03/27 14:27:00;;;;;;;2.75;0.32;;;;;;;;;;6340520;28;20052;-74
2023/03/27 14:30:15;;;;;;;2.97;0.73;;;;;;;;;;6345586;28;20047;-76
2023/03/27 14:33:19;;;;;;;0.85;0.10;;;;;;;;;;6322860;28;20294;-75
2023/03/27 14:36:28;;;;;;;2.85;0.52;;;;;;;;;;6330096;28;20321;-75
2023/03/27 14:39:36;;;;;;;4.55;0.40;;;;;;;;;;6336979;28;20381;-73
2023/03/27 14:42:59;;;;;;;3.13;0.50;;;;;;;;;;6336112;28;20097;-74
2023/03/27 14:46:04;;;;;;;13.75;1.48;;;;;;;;;;6336349;28;20054;-74
2023/03/27 14:49:07;;;;;;;13.85;8.38;;;;;;;;;;6335800;28;20060;-74
2023/03/27 14:52:10;;;;;;;;;;;;;;;;;;6337534;28;20143;-75
2023/03/27 14:55:16;;;;;;;6.28;3.33;;;;;;;;;;6343023;27;19930;-75
2023/03/27 14:58:19;;;;;;;1.65;0.40;;;;;;;;;;6361655;27;20323;-75
2023/03/27 15:01:33;;;;;;;23.60;1.83;;;;;;;;;;6358459;27;20734;-74
2023/03/27 15:04:38;;;;;;;4.68;0.50;;;;;;;;;;6364480;27;20855;-75
2023/03/27 15:07:43;;;;;;;17.88;1.00;;;;;;;;;;6359993;27;20058;-75
2023/03/27 15:10:50;;;;;;;18.85;0.90;;;;;;;;;;6360365;27;20251;-74
2023/03/27 15:13:52;;;;;;;7.25;0.93;;;;;;;;;;6361904;27;20131;-74
2023/03/27 15:16:58;;;;;;;4.23;0.40;;;;;;;;;;6359946;27;20105;-75
2023/03/27 15:20:09;;;;;;;21.33;2.17;;;;;;;;;;6360626;27;20051;-74
2023/03/27 15:23:17;;;;;;;4.40;0.65;;;;;;;;;;6359316;27;20131;-72
2023/03/27 15:29:42;;;;;;;3.33;0.70;;;;;;;;;;6357663;27;20126;-71
2023/03/27 15:32:51;;;;;;;16.73;1.98;;;;;;;;;;6364632;27;20047;-75
2023/03/27 15:36:25;;;;;;;3.72;0.85;;;;;;;;;;6351628;27;20312;-74
2023/03/27 15:39:28;;;;;;;4.18;0.60;;;;;;;;;;6362910;27;20141;-73
2023/03/27 15:42:45;;;;;;;4.38;0.68;;;;;;;;;;6359353;27;20055;-73
2023/03/27 15:46:00;;;;;;;2.65;0.30;;;;;;;;;;6358571;27;20153;-74
2023/03/27 15:49:24;;;;;;;4.65;1.10;;;;;;;;;;6359628;27;20039;-74
2023/03/27 15:52:30;;;;;;;0.68;0.40;;;;;;;;;;6360587;27;20052;-74
2023/03/27 15:55:54;;;;;;;;;;;;;;;;;;;;;
2023/03/27 15:59:04;;;;;;;1.60;0.63;;;;;;;;;;6358139;27;20039;-74
2023/03/27 16:02:14;;;;;;;5.40;0.82;;;;;;;;;;6359802;27;20123;-75
2023/03/27 16:05:19;;;;;;;3.22;0.47;;;;;;;;;;6359067;27;20059;-73
2023/03/27 16:08:36;;;;;;;3.58;0.63;;;;;;;;;;6361270;27;20070;-74
2023/03/27 16:11:45;;;;;;;4.72;0.85;;;;;;;;;;6361207;27;20070;-76
2023/03/27 16:14:53;;;;;;;1.60;0.43;;;;;;;;;;6359051;27;20057;-77
2023/03/27 16:17:55;;;;;;;4.03;1.00;;;;;;;;;;6358208;27;20047;-73
2023/03/27 16:21:06;;;;;;;3.72;0.60;;;;;;;;;;6345709;27;20055;-74
2023/03/27 16:24:08;;;;;;;4.72;0.40;;;;;;;;;;6361994;27;20059;-74
2023/03/27 16:27:11;;;;;;;3.60;0.50;;;;;;;;;;6361048;28;20051;-73
2023/03/27 16:30:29;;;;;;;3.17;0.82;;;;;;;;;;6358238;27;20055;-73
2023/03/27 16:33:35;;;;;;;2.75;0.70;;;;;;;;;;6359735;27;20055;-73
2023/03/27 16:36:40;;;;;;;1.23;0.60;;;;;;;;;;6360241;28;20047;-74
2023/03/27 16:39:43;;;;;;;2.45;0.60;;;;;;;;;;6358199;27;20058;-73
2023/03/27 16:43:27;;;;;;;15.57;1.88;;;;;;;;;;6354541;27;20104;-74
2023/03/27 16:46:34;;;;;;;2.80;0.90;;;;;;;;;;6361520;27;20133;-75
2023/03/27 16:49:36;;;;;;;2.45;0.43;;;;;;;;;;6356391;27;20334;-74
2023/03/27 16:52:57;;;;;;;4.68;0.80;;;;;;;;;;6358957;27;20120;-75
2023/03/27 16:55:59;;;;;;;11.18;1.58;;;;;;;;;;6362489;27;20335;-74
2023/03/27 16:59:14;;;;;;;3.15;0.70;;;;;;;;;;6358713;27;20048;-75
2023/03/27 17:02:35;;;;;;;1.67;0.63;;;;;;;;;;6361445;27;20099;-74
2023/03/27 17:05:37;;;;;;;4.65;0.60;;;;;;;;;;6357174;27;20051;-74
2023/03/27 17:12:36;;;;;;;1.25;0.40;;;;;;;;;;6358204;27;20043;-74
2023/03/27 17:15:39;;;;;;;0.90;0.70;;;;;;;;;;6340443;27;20295;-74
2023/03/27 17:22:52;;;;;;;0.90;0.30;;;;;;;;;;6344200;27;20047;-73
2023/03/27 17:26:04;;;;;;;;;;;;;;;;;;;;;
2023/03/27 17:29:46;;;;;;;;;;;;;;;;;;;;;
2023/03/27 17:32:48;;;;;;;1.17;0.43;;;;;;;;;;6335685;27;20148;-74
2023/03/27 17:35:55;;;;;;;2.15;0.70;;;;;;;;;;6355582;27;20052;-74
2023/03/27 17:38:58;;;;;;;1.58;0.60;;;;;;;;;;6363892;28;20301;-71
2023/03/27 17:42:01;;;;;;;0.47;0.40;;;;;;;;;;6368154;27;20066;-75
2023/03/27 17:45:57;;;;;;;2.78;0.60;;;;;;;;;;6363992;27;20062;-74
2023/03/27 17:48:59;;;;;;;0.85;0.50;;;;;;;;;;6358395;27;20135;-76
2023/03/27 17:55:52;;;;;;;2.88;0.88;;;;;;;;;;6356289;27;20096;-71
2023/03/27 17:59:10;;;;;;;3.28;0.60;;;;;;;;;;6363323;27;20327;-74
2023/03/27 18:02:22;;;;;;;2.50;0.70;;;;;;;;;;6356076;27;20081;-77
2023/03/27 18:05:39;;;;;;;2.25;0.65;;;;;;;;;;6336379;27;20072;-75
2023/03/27 18:12:12;;;;;;;5.63;0.95;;;;;;;;;;6171231;28;20310;-75
2023/03/27 18:18:53;;;;;;;2.22;0.70;;;;;;;;;;6125208;28;20071;-76
2023/03/27 18:22:26;;;;;;;1.50;0.90;;;;;;;;;;6182166;28;20089;-77
2023/03/27 18:25:41;;;;;;;;;;;;;;;;;;;;;
2023/03/27 18:32:29;;;;;;;6.07;0.90;;;;;;;;;;6223952;28;20049;-79
2023/03/27 18:39:24;;;;;;;0.80;0.60;;;;;;;;;;6182750;28;20163;-74
2023/03/27 18:42:29;;;;;;;1.45;0.60;;;;;;;;;;6215552;28;20070;-72
2023/03/27 18:46:15;;;;;;;0.73;0.50;;;;;;;;;;6213410;28;20101;-75
2023/03/27 19:26:19;;;;;;;4.50;0.70;;;;;;;;;;6155661;28;20258;-73
2023/03/27 19:29:23;;;;;;;12.55;8.52;;;;;;;;;;6196807;28;20170;-73
2023/03/27 19:33:01;;;;;;;2.78;1.77;;;;;;;;;;6257316;28;20212;-76
2023/03/27 19:36:47;;;;;;;1.63;0.80;;;;;;;;;;6258526;28;20049;-75
2023/03/27 19:39:52;;;;;;;5.43;0.68;;;;;;;;;;6244621;28;20053;-75
2023/03/27 19:43:27;;;;;;;2.10;0.85;;;;;;;;;;6235696;28;20264;-75
2023/03/27 19:46:51;;;;;;;;;;;;;;;;;;;;;
2023/03/27 19:50:08;;;;;;;1.80;0.73;;;;;;;;;;6257436;27;20052;-75
2023/03/27 20:16:13;;;;;;;2.58;0.98;;;;;;;;;;6145713;28;20109;-75
2023/03/27 20:19:15;;;;;;;2.80;0.70;;;;;;;;;;6141079;28;20097;-75
2023/03/27 20:22:46;;;;;;;2.83;0.80;;;;;;;;;;6150680;28;20197;-73
2023/03/27 20:25:52;;;;;;;0.80;0.50;;;;;;;;;;6057559;29;20052;-74
2023/03/27 20:36:32;;;;;;;4.10;0.68;;;;;;;;;;5985794;29;20066;-74
2023/03/27 20:54:21;;;;;;;2.60;0.80;;;;;;;;;;6113774;29;20252;-74
2023/03/27 21:08:33;;;;;;;1.25;0.75;;;;;;;;;;6105049;28;20051;-72
2023/03/27 21:11:39;;;;;;;1.73;0.75;;;;;;;;;;6166467;28;20128;-74
2023/03/27 21:22:39;;;;;;;0.70;0.60;;;;;;;;;;6109929;28;20308;-72
2023/03/27 21:25:44;;;;;;;1.02;0.45;;;;;;;;;;6142809;28;20315;-73
2023/03/27 21:29:36;;;;;;;2.20;0.52;;;;;;;;;;6152048;28;20051;-73
2023/03/27 21:36:51;;;;;;;1.30;0.70;;;;;;;;;;6238104;28;20057;-71
2023/03/27 21:40:04;;;;;;;;;;;;;;;;;;;;;
2023/03/27 21:43:11;;;;;;;2.83;0.52;;;;;;;;;;6242185;28;20881;-72
2023/03/27 22:02:41;;;;;;;4.97;2.25;;;;;;;;;;6260785;28;20037;-77
2023/03/27 22:05:43;;;;;;;6.28;2.92;;;;;;;;;;6261407;28;20211;-74
2023/03/27 22:08:45;;;;;;;1.10;0.50;;;;;;;;;;6266850;28;20429;-74
2023/03/27 22:16:06;;;;;;;0.98;0.70;;;;;;;;;;6261477;28;20094;-74
2023/03/27 22:49:50;;;;;;;1.02;0.60;;;;;;;;;;6036868;29;20172;-71
2023/03/27 23:08:15;;;;;;;4.32;1.00;;;;;;;;;;6214021;28;20541;-74
2023/03/27 23:19:39;;;;;;;1.15;0.60;;;;;;;;;;6187801;28;20238;-72
2023/03/27 23:33:49;;;;;;;6.53;0.57;;;;;;;;;;6123999;29;20110;-73
2023/03/27 23:37:53;;;;;;;;;;;;;;;;;;;;;
2023/03/27 23:44:51;;;;;;;2.38;0.70;;;;;;;;;;6105217;29;20125;-73
